LIPYLIPB

Guest
Details From LIPY - FALCONARA
To LIPB - BOLZANO
Flight Number -
Tags generated
Created
Modified
Stats Distance 191 nm / 354 km
Max Altitude 18,800 ft / 5,730 m
Waypoints 3
Social Downloads 5
Likes 0
Share VATSIM

Download

Looking for another format? Having issues loading an existing format? Contact us
Advertisement - Login to hide

Notes

Basic altitude profile: - Ascent Rate: 2500ft/min - Ascent Speed: 250kts - Cruise Altitude: 35000ft - Cruise Speed: 420kts - Descent Rate: 1500ft/min - Descent Speed: 250kts Options: - Use NATs: yes - Use PACOTS: yes - Use low airways: yes - Use high airways: yes

Route

LIPY CHI LIPB

ID Type Via Altitude Latitude Longitude Leg Dist Tot Dist Heading (true) Name
O LIPY APT - 0 ft / 0 m 43.61635˚ 13.36231˚ - 0 nm - FALCONARA
CHI VOR - 18,800 ft / 5,730 m 45.07109˚ 12.28140˚ 98 nm 98 nm 332° / 332° CHIOGGIA VOR-DME
O LIPB APT - 0 ft / 0 m 46.45891˚ 11.32686˚ 92 nm 191 nm 335° / 334° BOLZANO

Altitude Profile

Advertisement - Login to hide

Weather


0- 5 10 15 20 25 30 35+ Temperature / ° C

Clouds and Precipitation
Forecast for 2018-05-24 12:00 UTC. Updated an hour ago

Ground ~20,000 ft ~40,000 ft Winds

LIPY

Details ICAO LIPY (AOI)
Name FALCONARA
Region Italy
Timezone Europe/Rome (UTC+2.0)
Stats Elevation 49 ft / 15 m (AMSL)
Location 43.616351° 13.362310°
Runways 1
Magnetic Variation 3.342° E

METAR

LIPY 240950Z 34008KT 310V010 9999 FEW030 23/15 Q1017

Decode

TAF

TAF LIPY 240500Z 2406/2506 VRB05KT 9999 SCT030 BECMG 2408/2410 33010KT BECMG 2416/2419 VRB05KT

Decode

Departure Runways

ID Width Length Bearing (true) Bearing (mag) Surface Threshold Offset Overrun Length
04 148 ft / 45 m 9,711 ft / 2,960 m 44.81° 41.47° Asphalt 641 ft / 195 m 0 ft / 0 m
22 148 ft / 45 m 9,711 ft / 2,960 m 224.83° 221.49° Asphalt 492 ft / 150 m 0 ft / 0 m

LIPB

Details ICAO LIPB (BZO)
Name BOLZANO
Region Italy
Timezone Europe/Rome (UTC+2.0)
Stats Elevation 789 ft / 240 m (AMSL)
Location 46.458906° 11.326862°
Runways 2
Magnetic Variation 3.042° E

METAR

LIPB 240950Z 00000KT 9999 FEW030 BKN090 20/16 Q1018

Decode

TAF

TAF LIPB 240500Z 2406/2506 VRB05KT 9999 SCT030 TEMPO 2406/2409 RA TEMPO 2412/2416 TSRA

Decode

Destination Runways

ID Width Length Bearing (true) Bearing (mag) Surface Threshold Offset Overrun Length
01 98 ft / 30 m 4,257 ft / 1,297 m 10.21° 7.17° Asphalt 0 ft / 0 m 0 ft / 0 m
01R 66 ft / 20 m 2,292 ft / 698 m 10.57° 7.53° Grass 0 ft / 0 m 0 ft / 0 m
19 98 ft / 30 m 4,257 ft / 1,297 m 190.22° 187.18° Asphalt 200 ft / 61 m 0 ft / 0 m
19L 66 ft / 20 m 2,292 ft / 698 m 190.58° 187.54° Grass 0 ft / 0 m 0 ft / 0 m

Approach Navaids

Runway Type Ident Frequency Range Bearing (true) Bearing (mag) Slope Elevation
01 Localiser IBZ 109.10 MHz 18 nm / 33 km 18.82° 15.77° - 789 ft / 240 m (AMSL)
01 DME IBZ 109.10 MHz 18 nm / 33 km - - - 789 ft / 240 m (AMSL)